createdAt,value
2018-11-29T00:00:38.291Z,101362.81
2018-11-29T00:03:08.320Z,101366.70
2018-11-29T00:05:37.336Z,101335.05
2018-11-29T00:08:06.366Z,101365.52
2018-11-29T00:10:35.454Z,101371.92
2018-11-29T00:13:04.572Z,101371.01
2018-11-29T00:15:33.552Z,101375.73
2018-11-29T00:18:02.503Z,101380.09
2018-11-29T00:20:31.504Z,101386.56
2018-11-29T00:23:00.444Z,101386.84
2018-11-29T00:25:29.404Z,101392.23
2018-11-29T00:27:58.353Z,101398.19
2018-11-29T00:30:27.343Z,101407.78
2018-11-29T00:32:56.629Z,101407.66
2018-11-29T00:35:25.568Z,101409.50
2018-11-29T00:37:54.516Z,101410.69
2018-11-29T00:40:24.294Z,101420.11
2018-11-29T00:42:53.432Z,101420.98
2018-11-29T00:45:24.109Z,101422.52
2018-11-29T00:47:53.301Z,101436.22
2018-11-29T00:50:22.447Z,101430.70
2018-11-29T00:52:51.900Z,101437.17
2018-11-29T00:55:22.996Z,101437.29
2018-11-29T00:57:53.021Z,101442.12
2018-11-29T01:00:25.612Z,101439.09
2018-11-29T01:02:54.682Z,101442.33
2018-11-29T01:05:23.628Z,101442.23
2018-11-29T01:07:52.570Z,101445.24
2018-11-29T01:10:21.515Z,101438.91
2018-11-29T01:12:50.465Z,101442.05
2018-11-29T01:15:20.335Z,101443.11
2018-11-29T01:17:50.193Z,101442.01
2018-11-29T01:20:20.817Z,101447.17
2018-11-29T01:22:49.778Z,101451.93
2018-11-29T01:25:19.028Z,101450.20
2018-11-29T01:27:49.992Z,101446.77
2018-11-29T01:30:19.845Z,101452.59
2018-11-29T01:32:48.780Z,101446.41
2018-11-29T01:35:19.492Z,101454.20
2018-11-29T01:37:48.706Z,101452.23
2018-11-29T01:40:22.605Z,101456.34
2018-11-29T01:42:52.916Z,101452.62
2018-11-29T01:45:21.872Z,101455.60
2018-11-29T01:47:50.813Z,101456.72
2018-11-29T01:50:19.810Z,101461.83
2018-11-29T01:52:48.765Z,101467.41
2018-11-29T01:55:17.718Z,101467.21
2018-11-29T01:57:46.665Z,101473.05
2018-11-29T02:00:18.400Z,101472.34
2018-11-29T02:02:48.575Z,101466.66
2018-11-29T02:05:17.540Z,101465.55
2018-11-29T02:07:46.490Z,101466.00
2018-11-29T02:10:21.296Z,101469.84
2018-11-29T02:12:50.309Z,101469.84
2018-11-29T02:15:19.250Z,101470.87
2018-11-29T02:17:48.239Z,101476.29
2018-11-29T02:20:17.958Z,101473.00
2018-11-29T02:22:47.065Z,101484.06
2018-11-29T02:25:16.033Z,101485.92
2018-11-29T02:27:44.954Z,101487.45
2018-11-29T02:30:20.852Z,101499.46
2018-11-29T02:32:49.812Z,101496.42
2018-11-29T02:35:18.785Z,101499.57
2018-11-29T02:37:47.725Z,101499.17
2018-11-29T02:40:17.520Z,101496.69
2018-11-29T02:42:47.102Z,101497.59
2018-11-29T02:45:33.148Z,101496.94
2018-11-29T02:48:02.095Z,101505.59
2018-11-29T02:53:14.401Z,101517.91
2018-11-29T02:55:43.331Z,101511.14
2018-11-29T02:58:12.386Z,101520.77
2018-11-29T03:00:41.334Z,101526.59
2018-11-29T03:03:10.265Z,101522.08
2018-11-29T03:05:39.195Z,101524.26
2018-11-29T03:08:08.120Z,101528.62
2018-11-29T03:10:37.054Z,101530.28
2018-11-29T03:13:06.249Z,101538.52
2018-11-29T03:15:35.170Z,101542.01
2018-11-29T03:18:04.180Z,101545.45
2018-11-29T03:20:33.133Z,101549.46
2018-11-29T03:23:02.105Z,101548.95
2018-11-29T03:25:31.035Z,101553.47
2018-11-29T03:28:00.023Z,101551.38
2018-11-29T03:30:28.969Z,101553.26
2018-11-29T03:32:57.893Z,101555.59
2018-11-29T03:35:26.828Z,101560.20
2018-11-29T03:37:55.761Z,101562.13
2018-11-29T03:40:24.729Z,101562.61
2018-11-29T03:42:53.656Z,101561.80
2018-11-29T03:45:22.579Z,101562.16
2018-11-29T03:47:51.544Z,101565.45
2018-11-29T03:50:20.481Z,101575.98
2018-11-29T03:52:49.441Z,101576.17
2018-11-29T03:55:18.361Z,101576.91
2018-11-29T03:57:47.342Z,101580.80
2018-11-29T04:00:17.265Z,101591.24
2018-11-29T04:02:47.123Z,101593.58
2018-11-29T04:05:16.137Z,101595.25
2018-11-29T04:07:45.064Z,101599.84
2018-11-29T04:10:14.950Z,101605.20
2018-11-29T04:12:43.856Z,101607.89
2018-11-29T04:15:13.856Z,101606.42
2018-11-29T04:17:42.765Z,101619.06
2018-11-29T04:20:13.824Z,101619.42
2018-11-29T04:22:42.831Z,101621.55
2018-11-29T04:25:12.884Z,101622.41
2018-11-29T04:27:41.850Z,101619.87
2018-11-29T04:30:12.292Z,101622.11
2018-11-29T04:32:41.240Z,101629.09
2018-11-29T04:35:10.801Z,101629.81
2018-11-29T04:37:39.950Z,101630.22
2018-11-29T04:40:12.372Z,101631.08
2018-11-29T04:42:41.352Z,101639.84
2018-11-29T04:45:15.265Z,101636.50
2018-11-29T04:47:44.264Z,101643.90
2018-11-29T04:50:13.242Z,101646.03
2018-11-29T04:52:42.245Z,101643.16
2018-11-29T04:55:11.344Z,101652.48
2018-11-29T04:57:40.336Z,101652.08
2018-11-29T05:00:14.168Z,101657.89
2018-11-29T05:02:43.098Z,101663.56
2018-11-29T05:05:12.656Z,101673.94
2018-11-29T05:07:41.577Z,101677.98
2018-11-29T05:10:12.069Z,101683.44
2018-11-29T05:12:40.999Z,101695.20
2018-11-29T05:15:11.374Z,101698.43
2018-11-29T05:17:40.373Z,101703.20
2018-11-29T05:20:09.568Z,101709.73
2018-11-29T05:22:38.509Z,101712.38
2018-11-29T05:25:08.475Z,101717.41
2018-11-29T05:27:37.789Z,101718.72
2018-11-29T05:30:13.636Z,101724.99
2018-11-29T05:32:42.575Z,101715.68
2018-11-29T05:35:12.536Z,101734.41
2018-11-29T05:37:41.639Z,101738.81
2018-11-29T05:40:11.964Z,101736.26
2018-11-29T05:42:41.012Z,101733.55
2018-11-29T05:45:10.808Z,101747.39
2018-11-29T05:47:39.754Z,101746.80
2018-11-29T05:50:11.786Z,101750.34
2018-11-29T05:52:41.870Z,101752.16
2018-11-29T05:55:11.244Z,101752.75
2018-11-29T05:57:40.179Z,101763.91
2018-11-29T06:00:11.992Z,101768.05
2018-11-29T06:02:40.934Z,101763.10
2018-11-29T06:05:10.903Z,101766.02
2018-11-29T06:07:39.840Z,101772.84
2018-11-29T06:10:08.807Z,101772.30
2018-11-29T06:12:38.136Z,101774.75
2018-11-29T06:15:09.693Z,101783.48
2018-11-29T06:17:38.667Z,101800.53
2018-11-29T06:20:10.809Z,101798.26
2018-11-29T06:22:39.780Z,101795.03
2018-11-29T06:25:08.751Z,101797.54
2018-11-29T06:27:37.692Z,101806.36
2018-11-29T06:30:13.944Z,101807.58
2018-11-29T06:32:42.894Z,101816.55
2018-11-29T06:35:12.120Z,101815.88
2018-11-29T06:37:41.041Z,101816.05
2018-11-29T06:40:14.843Z,101820.86
2018-11-29T06:42:43.868Z,101819.59
2018-11-29T06:45:17.009Z,101825.19
2018-11-29T06:47:46.086Z,101830.05
2018-11-29T06:50:15.397Z,101830.33
2018-11-29T06:52:45.335Z,101832.23
2018-11-29T06:55:18.756Z,101841.83
2018-11-29T06:57:47.680Z,101836.78
2018-11-29T07:00:33.712Z,101844.05
2018-11-29T07:03:02.665Z,101842.91
2018-11-29T07:05:31.639Z,101832.76
2018-11-29T07:08:00.579Z,101845.90
2018-11-29T07:10:32.331Z,101848.74
2018-11-29T07:13:01.550Z,101859.14
2018-11-29T07:15:30.516Z,101854.31
2018-11-29T07:17:59.461Z,101866.82
2018-11-29T07:20:28.457Z,101862.11
2018-11-29T07:22:57.404Z,101859.77
2018-11-29T07:25:26.347Z,101864.30
2018-11-29T07:27:55.353Z,101868.48
2018-11-29T07:30:24.399Z,101864.56
2018-11-29T07:32:53.352Z,101873.51
2018-11-29T07:35:22.437Z,101872.83
2018-11-29T07:37:51.376Z,101873.90
2018-11-29T07:40:20.598Z,101870.91
2018-11-29T07:42:50.885Z,101875.43
2018-11-29T07:45:20.753Z,101875.29
2018-11-29T07:47:49.714Z,101878.94
2018-11-29T07:50:20.846Z,101881.48
2018-11-29T07:52:49.889Z,101884.45
2018-11-29T07:55:20.669Z,101881.89
2018-11-29T07:57:50.729Z,101885.09
2018-11-29T08:00:19.670Z,101885.84
2018-11-29T08:02:48.620Z,101881.20
2018-11-29T08:05:18.167Z,101884.92
2018-11-29T08:07:47.990Z,101878.94
2018-11-29T08:10:18.680Z,101879.08
2018-11-29T08:12:47.731Z,101882.91
2018-11-29T08:15:17.952Z,101889.58
2018-11-29T08:17:46.932Z,101887.19
2018-11-29T08:20:17.069Z,101891.30
2018-11-29T08:22:45.991Z,101889.94
2018-11-29T08:25:14.944Z,101893.25
2018-11-29T08:27:43.875Z,101897.89
2018-11-29T08:30:15.710Z,101896.73
2018-11-29T08:32:44.659Z,101894.92
2018-11-29T08:35:14.329Z,101903.16
2018-11-29T08:37:44.529Z,101901.30
2018-11-29T08:40:21.740Z,101904.09
2018-11-29T08:42:50.795Z,101901.05
2018-11-29T08:45:19.766Z,101903.56
2018-11-29T08:47:48.768Z,101892.47
2018-11-29T08:50:17.729Z,101899.95
2018-11-29T08:52:47.231Z,101897.39
2018-11-29T08:55:17.353Z,101898.16
2018-11-29T08:57:46.907Z,101897.71
2018-11-29T09:00:16.942Z,101896.59
2018-11-29T09:02:45.895Z,101899.98
2018-11-29T09:05:15.133Z,101897.86
2018-11-29T09:07:45.021Z,101894.47
2018-11-29T09:10:17.866Z,101896.22
2018-11-29T09:12:46.843Z,101896.67
2018-11-29T09:15:16.613Z,101895.92
2018-11-29T09:17:45.676Z,101895.22
2018-11-29T09:20:18.674Z,101897.49
2018-11-29T09:22:49.423Z,101898.98
2018-11-29T09:25:19.488Z,101903.51
2018-11-29T09:27:48.484Z,101895.69
2018-11-29T09:30:19.188Z,101898.66
2018-11-29T09:32:49.124Z,101898.80
2018-11-29T09:35:18.073Z,101898.59
2018-11-29T09:37:47.017Z,101888.59
2018-11-29T09:40:19.321Z,101891.89
2018-11-29T09:42:48.349Z,101895.63
2018-11-29T09:45:19.338Z,101894.01
2018-11-29T09:47:50.212Z,101893.50
2018-11-29T09:50:19.298Z,101902.10
2018-11-29T09:52:48.315Z,101899.64
2018-11-29T09:55:18.073Z,101889.08
2018-11-29T09:57:47.930Z,101885.58
2018-11-29T10:00:27.151Z,101888.72
2018-11-29T10:02:52.992Z,101878.62
2018-11-29T10:05:21.964Z,101874.70
2018-11-29T10:07:50.885Z,101869.72
2018-11-29T10:10:20.062Z,101868.02
2018-11-29T10:12:49.051Z,101865.12
2018-11-29T10:15:18.026Z,101867.03
2018-11-29T10:17:46.978Z,101867.28
2018-11-29T10:20:16.000Z,101858.26
2018-11-29T10:22:44.938Z,101855.67
2018-11-29T10:25:15.378Z,101854.58
2018-11-29T10:27:47.723Z,101852.83
2018-11-29T10:30:21.603Z,101848.70
2018-11-29T10:32:50.582Z,101851.83
2018-11-29T10:35:19.507Z,101857.52
2018-11-29T10:37:48.415Z,101857.38
2018-11-29T10:40:17.344Z,101862.58
2018-11-29T10:42:46.265Z,101863.90
2018-11-29T10:45:16.721Z,101861.02
2018-11-29T10:47:52.305Z,101853.38
2018-11-29T10:50:16.134Z,101861.05
2018-11-29T10:52:45.066Z,101848.74
2018-11-29T10:55:15.242Z,101852.09
2018-11-29T10:57:44.230Z,101849.30
2018-11-29T11:00:29.500Z,101845.11
2018-11-29T11:03:10.504Z,101840.55
2018-11-29T11:05:39.506Z,101840.17
2018-11-29T11:08:09.294Z,101828.87
2018-11-29T11:10:39.114Z,101831.91
2018-11-29T11:13:08.156Z,101831.70
2018-11-29T11:15:37.180Z,101835.03
2018-11-29T11:18:07.209Z,101826.52
2018-11-29T11:20:36.169Z,101833.94
2018-11-29T11:23:05.177Z,101830.94
2018-11-29T11:25:34.094Z,101825.04
2018-11-29T11:28:03.275Z,101826.12
2018-11-29T11:30:32.216Z,101824.49
2018-11-29T11:33:01.144Z,101817.61
2018-11-29T11:35:30.952Z,101816.67
2018-11-29T11:37:59.870Z,101817.06
2018-11-29T11:40:28.817Z,101823.36
2018-11-29T11:42:57.736Z,101817.64
2018-11-29T11:45:26.671Z,101815.27
2018-11-29T11:47:55.612Z,101810.16
2018-11-29T11:50:25.515Z,101811.20
2018-11-29T11:52:55.481Z,101817.38
2018-11-29T11:55:29.893Z,101813.09
2018-11-29T11:57:53.464Z,101812.48
2018-11-29T12:00:25.316Z,101803.67
2018-11-29T12:03:03.640Z,101803.31
2018-11-29T12:05:32.567Z,101799.33
2018-11-29T12:08:01.502Z,101799.17
2018-11-29T12:10:30.429Z,101793.34
2018-11-29T12:12:59.384Z,101790.98
2018-11-29T12:15:28.309Z,101792.77
2018-11-29T12:17:57.223Z,101798.72
2018-11-29T12:20:26.170Z,101799.75
2018-11-29T12:22:55.092Z,101798.77
2018-11-29T12:25:24.118Z,101793.09
2018-11-29T12:27:53.351Z,101798.59
2018-11-29T12:30:25.682Z,101789.40
2018-11-29T12:32:57.180Z,101794.70
2018-11-29T12:35:26.141Z,101795.94
2018-11-29T12:37:55.070Z,101794.98
2018-11-29T12:40:24.061Z,101789.98
2018-11-29T12:42:52.997Z,101790.69
2018-11-29T12:45:21.912Z,101783.80
2018-11-29T12:47:50.845Z,101787.08
2018-11-29T12:50:21.778Z,101790.12
2018-11-29T12:52:50.713Z,101790.64
2018-11-29T12:55:20.685Z,101788.33
2018-11-29T12:58:04.537Z,101782.05
2018-11-29T13:00:20.713Z,101786.61
2018-11-29T13:02:53.565Z,101782.55
2018-11-29T13:05:22.595Z,101783.69
2018-11-29T13:07:51.600Z,101790.18
2018-11-29T13:10:21.462Z,101785.34
2018-11-29T13:12:50.458Z,101793.95
2018-11-29T13:15:21.921Z,101789.22
2018-11-29T13:17:50.933Z,101789.42
2018-11-29T13:20:19.911Z,101790.20
2018-11-29T13:22:48.841Z,101791.55
2018-11-29T13:25:19.629Z,101794.38
2018-11-29T13:27:48.716Z,101803.78
2018-11-29T13:30:20.542Z,101800.22
2018-11-29T13:32:50.695Z,101799.02
2018-11-29T13:35:21.853Z,101800.48
2018-11-29T13:37:54.874Z,101797.84
2018-11-29T13:40:23.939Z,101793.34
2018-11-29T13:42:52.941Z,101793.18
2018-11-29T13:45:21.879Z,101789.13
2018-11-29T13:47:50.873Z,101797.76
2018-11-29T13:50:19.843Z,101794.79
2018-11-29T13:52:49.064Z,101797.45
2018-11-29T13:55:18.478Z,101798.33
2018-11-29T13:57:48.997Z,101807.75
2018-11-29T14:00:22.322Z,101809.15
2018-11-29T14:02:54.869Z,101812.59
2018-11-29T14:05:24.063Z,101811.92
2018-11-29T14:07:53.265Z,101815.12
2018-11-29T14:10:23.700Z,101814.08
2018-11-29T14:12:53.925Z,101806.54
2018-11-29T14:15:28.075Z,101808.59
2018-11-29T14:17:57.270Z,101808.19
2018-11-29T14:20:26.516Z,101811.53
2018-11-29T14:22:56.521Z,101810.12
2018-11-29T14:25:25.707Z,101803.17
2018-11-29T14:27:57.033Z,101809.52
2018-11-29T14:30:30.196Z,101808.00
2018-11-29T14:33:00.497Z,101815.17
2018-11-29T14:35:29.693Z,101818.72
2018-11-29T14:37:58.895Z,101811.72
2018-11-29T14:40:29.434Z,101820.94
2018-11-29T14:42:58.704Z,101816.25
2018-11-29T14:45:28.319Z,101818.22
2018-11-29T14:47:57.704Z,101819.67
2018-11-29T14:50:29.713Z,101815.56
2018-11-29T14:52:58.988Z,101822.23
2018-11-29T14:55:28.141Z,101822.34
2018-11-29T14:57:57.324Z,101823.37
2018-11-29T15:00:26.494Z,101819.05
2018-11-29T15:02:56.202Z,101817.81
2018-11-29T15:05:27.624Z,101824.33
2018-11-29T15:07:56.771Z,101815.22
2018-11-29T15:10:25.935Z,101819.67
2018-11-29T15:12:55.095Z,101818.47
2018-11-29T15:15:24.270Z,101827.31
2018-11-29T15:17:54.416Z,101829.66
2018-11-29T15:20:27.353Z,101831.66
2018-11-29T15:22:56.299Z,101829.44
2018-11-29T15:25:25.567Z,101830.37
2018-11-29T15:27:54.725Z,101832.06
2018-11-29T15:30:24.340Z,101829.10
2018-11-29T15:32:53.497Z,101834.33
2018-11-29T15:35:22.640Z,101830.41
2018-11-29T15:37:51.819Z,101832.83
2018-11-29T15:40:20.988Z,101835.42
2018-11-29T15:42:50.480Z,101837.15
2018-11-29T15:45:20.840Z,101837.82
2018-11-29T15:47:50.118Z,101838.69
2018-11-29T15:50:19.370Z,101841.28
2018-11-29T15:52:48.624Z,101843.01
2018-11-29T15:55:19.874Z,101844.41
2018-11-29T15:57:49.833Z,101839.96
2018-11-29T16:00:20.122Z,101847.03
2018-11-29T16:02:49.790Z,101852.18
2018-11-29T16:05:19.011Z,101847.37
2018-11-29T16:07:48.170Z,101853.20
2018-11-29T16:10:21.644Z,101850.08
2018-11-29T16:12:50.876Z,101861.32
2018-11-29T16:15:20.755Z,101858.31
2018-11-29T16:17:50.860Z,101857.37
2018-11-29T16:20:26.947Z,101858.61
2018-11-29T16:22:56.339Z,101860.42
2018-11-29T16:25:25.514Z,101867.91
2018-11-29T16:27:54.694Z,101860.98
2018-11-29T16:30:28.426Z,101862.75
2018-11-29T16:32:59.426Z,101858.77
2018-11-29T16:35:28.624Z,101862.30
2018-11-29T16:37:57.792Z,101873.28
2018-11-29T16:40:26.951Z,101875.58
2018-11-29T16:42:56.116Z,101872.45
2018-11-29T16:45:25.313Z,101871.47
2018-11-29T16:47:54.483Z,101871.28
2018-11-29T16:50:23.754Z,101875.80
2018-11-29T16:52:52.972Z,101869.59
2018-11-29T16:55:22.138Z,101874.45
2018-11-29T16:57:53.120Z,101871.55
2018-11-29T17:00:23.163Z,101871.13
2018-11-29T17:02:52.450Z,101874.67
2018-11-29T17:05:22.839Z,101875.50
2018-11-29T17:07:52.094Z,101874.37
2018-11-29T17:10:22.354Z,101885.02
2018-11-29T17:12:55.991Z,101883.91
2018-11-29T17:15:25.288Z,101874.09
2018-11-29T17:17:54.469Z,101879.05
2018-11-29T17:20:23.769Z,101877.41
2018-11-29T17:22:53.109Z,101882.41
2018-11-29T17:25:22.273Z,101876.25
2018-11-29T17:27:51.459Z,101874.07
2018-11-29T17:30:23.078Z,101871.73
2018-11-29T17:32:53.336Z,101873.87
2018-11-29T17:35:22.496Z,101865.16
2018-11-29T17:37:51.916Z,101856.25
2018-11-29T17:40:22.524Z,101864.82
2018-11-29T17:42:53.221Z,101863.58
2018-11-29T17:45:23.284Z,101864.18
2018-11-29T17:47:53.716Z,101817.42
2018-11-29T17:50:25.291Z,101854.37
2018-11-29T17:52:54.470Z,101855.05
2018-11-29T17:55:23.664Z,101849.38
2018-11-29T17:57:52.899Z,101855.50
2018-11-29T18:00:23.403Z,101853.70
2018-11-29T18:02:52.613Z,101855.53
2018-11-29T18:05:21.785Z,101853.77
2018-11-29T18:07:51.108Z,101856.55
2018-11-29T18:10:23.554Z,101858.84
2018-11-29T18:12:56.384Z,101861.31
2018-11-29T18:15:28.200Z,101865.53
2018-11-29T18:17:57.383Z,101863.35
2018-11-29T18:20:26.562Z,101855.27
2018-11-29T18:22:55.730Z,101856.59
2018-11-29T18:25:24.923Z,101844.30
2018-11-29T18:27:54.131Z,101845.20
2018-11-29T18:30:23.739Z,101839.03
2018-11-29T18:32:52.924Z,101854.30
2018-11-29T18:35:22.133Z,101854.11
2018-11-29T18:37:51.356Z,101856.28
2018-11-29T18:40:21.491Z,101855.38
2018-11-29T18:42:54.988Z,101853.05
2018-11-29T18:45:24.226Z,101861.33
2018-11-29T18:47:53.992Z,101856.10
2018-11-29T18:50:25.040Z,101860.50
2018-11-29T18:52:54.369Z,101855.27
2018-11-29T18:55:24.531Z,101861.96
2018-11-29T18:57:54.213Z,101866.96
2018-11-29T19:00:32.454Z,101851.17
2018-11-29T19:03:01.634Z,101855.53
2018-11-29T19:05:30.800Z,101861.81
2018-11-29T19:07:59.963Z,101857.52
2018-11-29T19:10:29.138Z,101864.03
2018-11-29T19:13:01.719Z,101858.35
2018-11-29T19:15:30.887Z,101858.35
2018-11-29T19:18:00.076Z,101859.17
2018-11-29T19:20:29.252Z,101852.11
2018-11-29T19:22:59.386Z,101856.13
2018-11-29T19:25:28.562Z,101850.05
2018-11-29T19:27:58.355Z,101844.70
2018-11-29T19:30:29.464Z,101854.81
2018-11-29T19:33:31.674Z,101850.08
2018-11-29T19:36:00.847Z,101852.27
2018-11-29T19:38:30.027Z,101856.80
2018-11-29T19:40:59.190Z,101851.95
2018-11-29T19:43:28.448Z,101855.90
2018-11-29T19:45:57.638Z,101855.90
2018-11-29T19:48:26.818Z,101860.75
2018-11-29T19:50:56.106Z,101856.80
2018-11-29T19:53:26.442Z,101856.66
2018-11-29T19:55:58.210Z,101863.27
2018-11-29T19:58:27.469Z,101864.70
2018-11-29T20:00:56.671Z,101866.98
2018-11-29T20:03:25.841Z,101866.91
2018-11-29T20:05:55.086Z,101858.98
2018-11-29T20:08:24.265Z,101863.27
2018-11-29T20:10:53.434Z,101866.42
2018-11-29T20:13:22.599Z,101864.20
2018-11-29T20:15:53.333Z,101857.74
2018-11-29T20:18:22.562Z,101867.47
2018-11-29T20:20:51.740Z,101858.03
2018-11-29T20:23:20.990Z,101860.83
2018-11-29T20:25:50.176Z,101860.08
2018-11-29T20:28:19.357Z,101857.37
2018-11-29T20:30:48.589Z,101855.41
2018-11-29T20:33:17.775Z,101862.64
2018-11-29T20:35:46.944Z,101863.61
2018-11-29T20:38:16.119Z,101856.17
2018-11-29T20:40:46.345Z,101853.47
2018-11-29T20:43:16.091Z,101848.62
2018-11-29T20:45:54.952Z,101844.19
2018-11-29T20:48:27.065Z,101839.80
2018-11-29T20:50:57.271Z,101831.74
2018-11-29T20:53:34.535Z,101833.78
2018-11-29T20:56:04.524Z,101828.18
2018-11-29T20:58:33.702Z,101834.00
2018-11-29T21:01:02.921Z,101832.16
2018-11-29T21:03:32.856Z,101826.48
2018-11-29T21:06:01.377Z,101825.66
2018-11-29T21:08:30.570Z,101828.36
2018-11-29T21:10:59.774Z,101828.25
2018-11-29T21:13:28.941Z,101817.70
2018-11-29T21:15:58.112Z,101823.82
2018-11-29T21:18:27.484Z,101824.10
2018-11-29T21:20:56.651Z,101818.47
2018-11-29T21:23:25.868Z,101816.77
2018-11-29T21:25:55.090Z,101814.73
2018-11-29T21:28:24.254Z,101808.16
2018-11-29T21:30:53.424Z,101804.67
2018-11-29T21:33:22.577Z,101807.33
2018-11-29T21:35:52.672Z,101814.14
2018-11-29T21:38:22.574Z,101808.95
2018-11-29T21:41:06.292Z,101807.30
2018-11-29T21:43:35.470Z,101805.70
2018-11-29T21:46:04.643Z,101806.19
2018-11-29T21:48:33.834Z,101797.34
2018-11-29T21:51:03.138Z,101807.92
2018-11-29T21:53:32.309Z,101811.23
2018-11-29T21:56:01.475Z,101799.93
2018-11-29T21:58:30.658Z,101803.00
2018-11-29T22:00:59.825Z,101803.80
2018-11-29T22:03:29.011Z,101806.84
2018-11-29T22:05:58.185Z,101785.23
2018-11-29T22:08:27.426Z,101794.70
2018-11-29T22:10:56.667Z,101791.22
2018-11-29T22:13:25.819Z,101785.72
2018-11-29T22:15:54.987Z,101781.70
2018-11-29T22:18:25.355Z,101775.20
2018-11-29T22:21:03.147Z,101772.30
2018-11-29T22:23:33.510Z,101780.88
2018-11-29T22:26:04.155Z,101778.18
2018-11-29T22:28:33.324Z,101777.35
2018-11-29T22:31:02.501Z,101777.63
2018-11-29T22:33:31.668Z,101781.26
2018-11-29T22:36:00.842Z,101773.41
2018-11-29T22:38:30.013Z,101768.30
2018-11-29T22:40:59.182Z,101769.54
2018-11-29T22:43:28.359Z,101757.47
2018-11-29T22:45:57.534Z,101753.08
2018-11-29T22:48:26.788Z,101752.32
2018-11-29T22:50:55.939Z,101750.66
2018-11-29T22:53:25.093Z,101745.23
2018-11-29T22:55:54.261Z,101737.84
2018-11-29T22:58:23.424Z,101740.88
2018-11-29T23:00:53.064Z,101732.27
2018-11-29T23:03:22.434Z,101739.95
2018-11-29T23:05:51.666Z,101725.88
2018-11-29T23:08:20.839Z,101729.41
2018-11-29T23:10:49.985Z,101727.78
2018-11-29T23:13:19.162Z,101721.35
2018-11-29T23:15:48.318Z,101726.40
2018-11-29T23:18:17.532Z,101722.50
2018-11-29T23:20:46.715Z,101714.55
2018-11-29T23:23:15.872Z,101707.11
2018-11-29T23:25:45.042Z,101713.38
2018-11-29T23:28:14.263Z,101698.99
2018-11-29T23:30:43.540Z,101711.78
2018-11-29T23:33:12.694Z,101697.02
2018-11-29T23:35:41.884Z,101701.89
2018-11-29T23:38:11.045Z,101696.05
2018-11-29T23:40:40.233Z,101695.56
2018-11-29T23:43:09.413Z,101695.08
2018-11-29T23:45:38.642Z,101690.42
2018-11-29T23:48:07.816Z,101694.63
2018-11-29T23:50:37.026Z,101687.27
2018-11-29T23:53:06.387Z,101683.85
2018-11-29T23:55:35.551Z,101688.03
2018-11-29T23:58:04.720Z,101683.19
